createdAt,value
2022-08-30T00:00:23.534Z,1020.10
2022-08-30T00:02:37.229Z,1020.16
2022-08-30T00:04:49.216Z,1020.14
2022-08-30T00:07:03.229Z,1020.19
2022-08-30T00:09:14.363Z,1020.20
2022-08-30T00:11:26.433Z,1020.22
2022-08-30T00:13:38.524Z,1020.28
2022-08-30T00:15:51.672Z,1020.27
2022-08-30T00:18:05.170Z,1020.28
2022-08-30T00:20:17.249Z,1020.30
2022-08-30T00:22:30.840Z,1020.27
2022-08-30T00:24:44.424Z,1020.25
2022-08-30T00:26:57.524Z,1020.21
2022-08-30T00:29:09.584Z,1020.21
2022-08-30T00:31:21.689Z,1020.22
2022-08-30T00:33:33.738Z,1020.23
2022-08-30T00:35:45.850Z,1020.25
2022-08-30T00:37:59.431Z,1020.26
2022-08-30T00:40:13.614Z,1020.25
2022-08-30T00:42:25.104Z,1020.25
2022-08-30T00:44:37.187Z,1020.20
2022-08-30T00:46:49.267Z,1020.23
2022-08-30T00:49:01.381Z,1020.24
2022-08-30T00:51:14.944Z,1020.22
2022-08-30T00:53:27.031Z,1020.22
2022-08-30T00:55:39.142Z,1020.25
2022-08-30T00:57:52.705Z,1020.26
2022-08-30T01:00:04.819Z,1020.30
2022-08-30T01:02:16.916Z,1020.29
2022-08-30T01:04:28.954Z,1020.34
2022-08-30T01:06:41.026Z,1020.33
2022-08-30T01:08:53.111Z,1020.37
2022-08-30T01:11:05.278Z,1020.37
2022-08-30T01:13:18.837Z,1020.38
2022-08-30T01:15:30.926Z,1020.39
2022-08-30T01:17:42.999Z,1020.42
2022-08-30T01:19:56.597Z,1020.39
2022-08-30T01:22:10.214Z,1020.34
2022-08-30T01:24:22.271Z,1020.36
2022-08-30T01:26:35.868Z,1020.38
2022-08-30T01:28:51.450Z,1020.34
2022-08-30T01:31:03.549Z,1020.37
2022-08-30T01:33:15.840Z,1020.40
2022-08-30T01:35:27.698Z,1020.41
2022-08-30T01:37:39.778Z,1020.47
2022-08-30T01:39:51.849Z,1020.46
2022-08-30T01:42:04.915Z,1020.46
2022-08-30T01:44:19.100Z,1020.45
2022-08-30T01:46:32.652Z,1020.49
2022-08-30T01:48:53.009Z,1020.46
2022-08-30T01:50:58.343Z,1020.42
2022-08-30T01:53:11.917Z,1020.41
2022-08-30T01:55:24.031Z,1020.42
2022-08-30T01:57:37.579Z,1020.40
2022-08-30T01:59:49.662Z,1020.41
2022-08-30T02:02:01.743Z,1020.45
2022-08-30T02:04:13.853Z,1020.46
2022-08-30T02:06:25.966Z,1020.49
2022-08-30T02:08:38.020Z,1020.46
2022-08-30T02:10:50.102Z,1020.45
2022-08-30T02:13:04.617Z,1020.43
2022-08-30T02:15:16.710Z,1020.45
2022-08-30T02:17:29.388Z,1020.46
2022-08-30T02:19:41.467Z,1020.43
2022-08-30T02:21:53.545Z,1020.46
2022-08-30T02:24:05.645Z,1020.39
2022-08-30T02:26:17.728Z,1020.39
2022-08-30T02:28:30.836Z,1020.30
2022-08-30T02:30:44.455Z,1020.29
2022-08-30T02:32:56.482Z,1020.31
2022-08-30T02:35:08.556Z,1020.29
2022-08-30T02:37:22.153Z,1020.32
2022-08-30T02:39:34.240Z,1020.32
2022-08-30T02:41:47.290Z,1020.28
2022-08-30T02:43:59.370Z,1020.25
2022-08-30T02:46:11.528Z,1020.35
2022-08-30T02:48:23.544Z,1020.33
2022-08-30T02:50:37.143Z,1020.35
2022-08-30T02:52:50.689Z,1020.26
2022-08-30T02:55:02.832Z,1020.27
2022-08-30T02:57:20.321Z,1020.28
2022-08-30T02:59:29.486Z,1020.28
2022-08-30T03:01:43.202Z,1020.29
2022-08-30T03:03:55.270Z,1020.31
2022-08-30T03:06:08.271Z,1020.33
2022-08-30T03:08:20.347Z,1020.28
2022-08-30T03:10:34.887Z,1020.29
2022-08-30T03:12:46.080Z,1020.34
2022-08-30T03:14:58.418Z,1020.33
2022-08-30T03:17:15.388Z,1020.31
2022-08-30T03:19:23.258Z,1020.36
2022-08-30T03:21:36.847Z,1020.33
2022-08-30T03:23:48.951Z,1020.32
2022-08-30T03:26:02.037Z,1020.32
2022-08-30T03:28:17.607Z,1020.34
2022-08-30T03:30:29.725Z,1020.29
2022-08-30T03:32:44.231Z,1020.32
2022-08-30T03:34:56.940Z,1020.32
2022-08-30T03:37:08.991Z,1020.38
2022-08-30T03:39:24.604Z,1020.40
2022-08-30T03:41:36.675Z,1020.36
2022-08-30T03:43:52.237Z,1020.40
2022-08-30T03:46:04.528Z,1020.43
2022-08-30T03:48:17.964Z,1020.47
2022-08-30T03:50:33.538Z,1020.47
2022-08-30T03:52:48.120Z,1020.52
2022-08-30T03:55:00.204Z,1020.56
2022-08-30T03:57:13.408Z,1020.54
2022-08-30T03:59:25.361Z,1020.61
2022-08-30T04:01:37.452Z,1020.59
2022-08-30T04:03:49.529Z,1020.57
2022-08-30T04:06:01.605Z,1020.59
2022-08-30T04:08:13.713Z,1020.56
2022-08-30T04:10:27.270Z,1020.55
2022-08-30T04:12:40.343Z,1020.57
2022-08-30T04:14:52.431Z,1020.55
2022-08-30T04:17:06.002Z,1020.55
2022-08-30T04:19:19.608Z,1020.55
2022-08-30T04:21:31.676Z,1020.59
2022-08-30T04:23:43.757Z,1020.58
2022-08-30T04:25:55.847Z,1020.56
2022-08-30T04:28:07.934Z,1020.60
2022-08-30T04:30:21.553Z,1020.56
2022-08-30T04:32:33.593Z,1020.60
2022-08-30T04:34:45.966Z,1020.60
2022-08-30T04:37:00.548Z,1020.65
2022-08-30T04:39:14.120Z,1020.64
2022-08-30T04:41:26.230Z,1020.67
2022-08-30T04:43:38.295Z,1020.68
2022-08-30T04:45:51.923Z,1020.68
2022-08-30T04:48:04.955Z,1020.66
2022-08-30T04:50:17.049Z,1020.69
2022-08-30T04:52:30.144Z,1020.66
2022-08-30T04:54:42.202Z,1020.70
2022-08-30T04:56:54.311Z,1020.74
2022-08-30T04:59:06.406Z,1020.74
2022-08-30T05:01:19.823Z,1020.72
2022-08-30T05:03:30.591Z,1020.73
2022-08-30T05:05:44.147Z,1020.72
2022-08-30T05:07:56.235Z,1020.75
2022-08-30T05:10:11.534Z,1020.73
2022-08-30T05:12:21.370Z,1020.75
2022-08-30T05:14:39.469Z,1020.77
2022-08-30T05:16:57.697Z,1020.76
2022-08-30T05:19:18.142Z,1020.80
2022-08-30T05:21:31.718Z,1020.85
2022-08-30T05:23:45.302Z,1020.88
2022-08-30T05:26:00.923Z,1020.91
2022-08-30T05:28:25.965Z,1020.97
2022-08-30T05:30:37.573Z,1020.94
2022-08-30T05:32:57.642Z,1021.00
2022-08-30T05:35:11.232Z,1021.01
2022-08-30T05:37:29.342Z,1020.98
2022-08-30T05:39:50.755Z,1020.98
2022-08-30T05:42:00.983Z,1021.03
2022-08-30T05:44:21.913Z,1021.04
2022-08-30T05:48:48.267Z,1021.06
2022-08-30T05:51:06.327Z,1021.07
2022-08-30T05:53:24.924Z,1021.02
2022-08-30T05:55:36.499Z,1021.01
2022-08-30T05:57:50.094Z,1021.07
2022-08-30T06:00:03.682Z,1021.03
2022-08-30T06:02:19.272Z,1021.01
2022-08-30T06:04:37.335Z,1021.00
2022-08-30T06:06:55.415Z,1020.99
2022-08-30T06:09:08.002Z,1021.00
2022-08-30T06:11:22.106Z,1021.00
2022-08-30T06:13:35.686Z,1021.04
2022-08-30T06:15:49.293Z,1021.00
2022-08-30T06:18:04.842Z,1021.04
2022-08-30T06:20:20.427Z,1021.01
2022-08-30T06:22:32.565Z,1021.04
2022-08-30T06:23:32.486Z,1021.05
2022-08-30T06:25:46.083Z,1021.10
2022-08-30T06:27:58.184Z,1021.12
2022-08-30T06:30:10.233Z,1021.13
2022-08-30T06:32:25.827Z,1021.17
2022-08-30T06:34:39.413Z,1021.19
2022-08-30T06:36:55.004Z,1021.17
2022-08-30T06:39:07.107Z,1021.19
2022-08-30T06:41:20.667Z,1021.23
2022-08-30T06:43:38.751Z,1021.19
2022-08-30T06:45:56.843Z,1021.19
2022-08-30T06:48:10.425Z,1021.20
2022-08-30T06:50:25.089Z,1021.20
2022-08-30T06:52:43.083Z,1021.17
2022-08-30T06:54:55.261Z,1021.20
2022-08-30T06:57:07.249Z,1021.14
2022-08-30T06:59:20.832Z,1021.12
2022-08-30T07:01:34.438Z,1021.08
2022-08-30T07:03:46.505Z,1021.06
2022-08-30T07:05:58.587Z,1021.07
2022-08-30T07:08:12.154Z,1021.11
2022-08-30T07:10:30.236Z,1021.14
2022-08-30T07:12:43.852Z,1021.12
2022-08-30T07:14:55.903Z,1021.10
2022-08-30T07:17:08.011Z,1021.14
2022-08-30T07:19:22.575Z,1021.17
2022-08-30T07:21:41.599Z,1021.18
2022-08-30T07:23:56.251Z,1021.19
2022-08-30T07:26:11.837Z,1021.21
2022-08-30T07:28:27.422Z,1021.16
2022-08-30T07:30:43.017Z,1021.23
2022-08-30T07:32:55.122Z,1021.22
2022-08-30T07:35:07.215Z,1021.19
2022-08-30T07:37:19.290Z,1021.24
2022-08-30T07:39:31.838Z,1021.26
2022-08-30T07:41:44.448Z,1021.33
2022-08-30T07:43:59.037Z,1021.33
2022-08-30T07:46:17.175Z,1021.34
2022-08-30T07:48:30.726Z,1021.37
2022-08-30T07:50:42.788Z,1021.39
2022-08-30T07:52:59.361Z,1021.42
2022-08-30T07:55:17.449Z,1021.40
2022-08-30T07:57:29.619Z,1021.41
2022-08-30T07:59:43.949Z,1021.43
2022-08-30T08:01:55.309Z,1021.47
2022-08-30T08:04:10.775Z,1021.47
2022-08-30T08:06:24.360Z,1021.47
2022-08-30T08:08:42.469Z,1021.45
2022-08-30T08:10:58.023Z,1021.47
2022-08-30T08:13:10.106Z,1021.45
2022-08-30T08:15:22.177Z,1021.46
2022-08-30T08:17:37.760Z,1021.44
2022-08-30T08:19:49.859Z,1021.41
2022-08-30T08:22:19.968Z,1021.40
2022-08-30T08:23:06.398Z,1021.45
2022-08-30T08:25:20.003Z,1021.50
2022-08-30T08:27:32.077Z,1021.52
2022-08-30T08:29:50.139Z,1021.57
2022-08-30T08:32:06.747Z,1021.60
2022-08-30T08:34:18.825Z,1021.58
2022-08-30T08:36:30.928Z,1021.69
2022-08-30T08:38:46.309Z,1021.65
2022-08-30T08:40:57.565Z,1021.65
2022-08-30T08:43:09.651Z,1021.74
2022-08-30T08:45:21.714Z,1021.67
2022-08-30T08:47:34.369Z,1021.64
2022-08-30T08:49:45.885Z,1021.64
2022-08-30T08:52:03.960Z,1021.62
2022-08-30T08:54:19.550Z,1021.66
2022-08-30T08:56:35.127Z,1021.63
2022-08-30T08:58:50.751Z,1021.64
2022-08-30T09:01:08.861Z,1021.70
2022-08-30T09:03:24.395Z,1021.69
2022-08-30T09:05:37.975Z,1021.70
2022-08-30T09:07:50.067Z,1021.65
2022-08-30T09:10:03.112Z,1021.65
2022-08-30T09:12:14.522Z,1021.63
2022-08-30T09:14:30.171Z,1021.60
2022-08-30T09:16:39.670Z,1021.67
2022-08-30T09:18:55.238Z,1021.65
2022-08-30T09:21:08.198Z,1021.68
2022-08-30T09:23:22.902Z,1021.68
2022-08-30T09:25:36.714Z,1021.64
2022-08-30T09:27:48.600Z,1021.66
2022-08-30T09:30:00.684Z,1021.66
2022-08-30T09:32:25.130Z,1021.66
2022-08-30T09:34:30.879Z,1021.65
2022-08-30T09:36:42.966Z,1021.63
2022-08-30T09:38:55.037Z,1021.65
2022-08-30T09:41:07.134Z,1021.63
2022-08-30T09:43:19.241Z,1021.60
2022-08-30T09:45:32.774Z,1021.68
2022-08-30T09:47:44.863Z,1021.67
2022-08-30T09:49:56.949Z,1021.66
2022-08-30T09:52:10.529Z,1021.64
2022-08-30T09:54:31.108Z,1021.60
2022-08-30T09:56:46.679Z,1021.66
2022-08-30T09:58:59.589Z,1021.62
2022-08-30T10:01:19.385Z,1021.61
2022-08-30T10:03:40.608Z,1021.65
2022-08-30T10:04:37.421Z,1021.61
2022-08-30T10:06:54.025Z,1021.60
2022-08-30T10:09:12.097Z,1021.59
2022-08-30T10:11:26.732Z,1021.57
2022-08-30T10:13:42.331Z,1021.52
2022-08-30T10:16:00.338Z,1021.56
2022-08-30T10:18:17.002Z,1021.51
2022-08-30T10:20:32.542Z,1021.51
2022-08-30T10:22:50.637Z,1021.51
2022-08-30T10:25:06.196Z,1021.46
2022-08-30T10:27:25.257Z,1021.51
2022-08-30T10:29:43.314Z,1021.53
2022-08-30T10:31:58.928Z,1021.54
2022-08-30T10:34:17.028Z,1021.54
2022-08-30T10:36:39.005Z,1021.56
2022-08-30T10:38:53.194Z,1021.46
2022-08-30T10:41:09.744Z,1021.45
2022-08-30T10:43:22.680Z,1021.42
2022-08-30T10:45:33.945Z,1021.44
2022-08-30T10:47:45.983Z,1021.41
2022-08-30T10:50:00.174Z,1021.41
2022-08-30T10:52:11.676Z,1021.47
2022-08-30T10:54:23.764Z,1021.48
2022-08-30T10:56:35.877Z,1021.39
2022-08-30T10:58:47.912Z,1021.38
2022-08-30T11:01:00.014Z,1021.36
2022-08-30T11:03:16.720Z,1021.32
2022-08-30T11:05:28.679Z,1021.30
2022-08-30T11:07:42.273Z,1021.29
2022-08-30T11:09:54.324Z,1021.31
2022-08-30T11:12:07.896Z,1021.30
2022-08-30T11:14:25.409Z,1021.30
2022-08-30T11:16:33.568Z,1021.32
2022-08-30T11:18:50.931Z,1021.31
2022-08-30T11:20:59.286Z,1021.30
2022-08-30T11:23:11.330Z,1021.35
2022-08-30T11:25:23.401Z,1021.30
2022-08-30T11:27:35.487Z,1021.25
2022-08-30T11:29:47.661Z,1021.30
2022-08-30T11:31:59.682Z,1021.25
2022-08-30T11:34:13.255Z,1021.26
2022-08-30T11:36:25.372Z,1021.22
2022-08-30T11:38:37.455Z,1021.20
2022-08-30T11:40:49.554Z,1021.18
2022-08-30T11:43:02.950Z,1021.15
2022-08-30T11:45:15.202Z,1021.15
2022-08-30T11:47:27.274Z,1021.08
2022-08-30T11:49:40.880Z,1021.03
2022-08-30T11:52:08.370Z,1020.99
2022-08-30T11:52:53.939Z,1021.01
2022-08-30T11:55:06.989Z,1021.00
2022-08-30T11:57:18.901Z,1021.03
2022-08-30T11:59:30.687Z,1021.04
2022-08-30T12:01:51.144Z,1021.02
2022-08-30T12:02:43.894Z,1021.04
2022-08-30T12:04:56.351Z,1021.02
2022-08-30T12:07:08.461Z,1021.05
2022-08-30T12:09:20.507Z,1021.00
2022-08-30T12:11:32.590Z,1021.03
2022-08-30T12:13:44.685Z,1021.00
2022-08-30T12:15:56.742Z,1020.96
2022-08-30T12:18:15.395Z,1020.95
2022-08-30T12:20:20.924Z,1020.86
2022-08-30T12:22:33.007Z,1020.80
2022-08-30T12:24:45.120Z,1020.82
2022-08-30T12:26:57.180Z,1020.79
2022-08-30T12:29:09.262Z,1020.79
2022-08-30T12:31:21.413Z,1020.78
2022-08-30T12:33:39.507Z,1020.75
2022-08-30T12:35:45.554Z,1020.75
2022-08-30T12:37:57.721Z,1020.81
2022-08-30T12:40:11.229Z,1020.74
2022-08-30T12:42:23.297Z,1020.77
2022-08-30T12:44:35.360Z,1020.73
2022-08-30T12:46:47.498Z,1020.70
2022-08-30T12:48:59.507Z,1020.63
2022-08-30T12:51:11.593Z,1020.65
2022-08-30T12:53:23.697Z,1020.68
2022-08-30T12:55:35.769Z,1020.70
2022-08-30T12:57:47.874Z,1020.63
2022-08-30T13:00:02.161Z,1020.64
2022-08-30T13:02:20.261Z,1020.56
2022-08-30T13:04:25.077Z,1020.60
2022-08-30T13:06:37.146Z,1020.55
2022-08-30T13:08:49.277Z,1020.52
2022-08-30T13:11:07.424Z,1020.55
2022-08-30T13:13:13.400Z,1020.46
2022-08-30T13:15:25.478Z,1020.47
2022-08-30T13:17:37.560Z,1020.44
2022-08-30T13:19:49.663Z,1020.41
2022-08-30T13:22:01.720Z,1020.43
2022-08-30T13:24:13.829Z,1020.38
2022-08-30T13:26:25.909Z,1020.35
2022-08-30T13:28:38.003Z,1020.38
2022-08-30T13:30:50.103Z,1020.36
2022-08-30T13:33:02.318Z,1020.32
2022-08-30T13:35:14.247Z,1020.38
2022-08-30T13:39:38.400Z,1020.37
2022-08-30T13:41:50.501Z,1020.35
2022-08-30T13:44:11.333Z,1020.37
2022-08-30T13:46:14.667Z,1020.32
2022-08-30T13:48:26.720Z,1020.30
2022-08-30T13:50:38.827Z,1020.22
2022-08-30T13:52:50.951Z,1020.25
2022-08-30T13:55:03.010Z,1020.26
2022-08-30T13:57:15.129Z,1020.27
2022-08-30T13:59:27.167Z,1020.22
2022-08-30T14:02:45.381Z,1020.26
2022-08-30T14:04:52.336Z,1020.33
2022-08-30T14:07:20.993Z,1020.31
2022-08-30T14:08:05.952Z,1020.32
2022-08-30T14:10:32.430Z,1020.29
2022-08-30T14:14:43.203Z,1020.36
2022-08-30T14:16:53.893Z,1020.34
2022-08-30T14:19:05.918Z,1020.40
2022-08-30T14:21:17.936Z,1020.38
2022-08-30T14:23:30.023Z,1020.36
2022-08-30T14:25:42.117Z,1020.34
2022-08-30T14:27:54.692Z,1020.36
2022-08-30T14:30:06.259Z,1020.38
2022-08-30T14:32:18.839Z,1020.33
2022-08-30T14:34:30.403Z,1020.34
2022-08-30T14:36:42.793Z,1020.37
2022-08-30T14:38:54.870Z,1020.43
2022-08-30T14:41:06.947Z,1020.43
2022-08-30T14:43:19.013Z,1020.46
2022-08-30T14:45:31.115Z,1020.41
2022-08-30T14:47:43.200Z,1020.43
2022-08-30T14:49:55.263Z,1020.38
2022-08-30T14:52:08.342Z,1020.41
2022-08-30T14:54:20.451Z,1020.38
2022-08-30T14:56:33.994Z,1020.38
2022-08-30T14:58:46.116Z,1020.40
2022-08-30T15:00:58.172Z,1020.41
2022-08-30T15:03:11.246Z,1020.42
2022-08-30T15:05:23.313Z,1020.38
2022-08-30T15:07:35.396Z,1020.39
2022-08-30T15:09:47.497Z,1020.39
2022-08-30T15:12:01.053Z,1020.39
2022-08-30T15:14:16.123Z,1020.40
2022-08-30T15:16:26.292Z,1020.40
2022-08-30T15:18:38.327Z,1020.38
2022-08-30T15:20:51.956Z,1020.38
2022-08-30T15:23:03.986Z,1020.39
2022-08-30T15:25:17.575Z,1020.44
2022-08-30T15:27:31.175Z,1020.43
2022-08-30T15:29:43.264Z,1020.38
2022-08-30T15:31:56.383Z,1020.38
2022-08-30T15:34:08.408Z,1020.43
2022-08-30T15:36:20.492Z,1020.47
2022-08-30T15:38:32.582Z,1020.42
2022-08-30T15:40:44.708Z,1020.39
2022-08-30T15:42:58.291Z,1020.36
2022-08-30T15:45:10.362Z,1020.31
2022-08-30T15:47:22.439Z,1020.30
2022-08-30T15:49:34.536Z,1020.28
2022-08-30T15:51:46.623Z,1020.29
2022-08-30T15:53:59.724Z,1020.32
2022-08-30T15:56:12.345Z,1020.26
2022-08-30T15:58:23.843Z,1020.28
2022-08-30T16:00:35.973Z,1020.30
2022-08-30T16:02:48.012Z,1020.28
2022-08-30T16:05:00.128Z,1020.26
2022-08-30T16:07:13.032Z,1020.24
2022-08-30T16:09:24.269Z,1020.27
2022-08-30T16:11:36.344Z,1020.25
2022-08-30T16:13:50.489Z,1020.24
2022-08-30T16:16:01.412Z,1020.23
2022-08-30T16:18:12.615Z,1020.24
2022-08-30T16:20:24.698Z,1020.23
2022-08-30T16:22:36.779Z,1020.23
2022-08-30T16:24:48.861Z,1020.24
2022-08-30T16:27:00.954Z,1020.30
2022-08-30T16:29:13.021Z,1020.28
2022-08-30T16:31:26.034Z,1020.25
2022-08-30T16:33:39.980Z,1020.27
2022-08-30T16:35:49.278Z,1020.25
2022-08-30T16:38:01.405Z,1020.25
2022-08-30T16:40:13.475Z,1020.26
2022-08-30T16:42:25.533Z,1020.31
2022-08-30T16:44:37.611Z,1020.27
2022-08-30T16:46:53.199Z,1020.27
2022-08-30T16:49:01.814Z,1020.28
2022-08-30T16:51:13.870Z,1020.21
2022-08-30T16:53:25.951Z,1020.23
2022-08-30T16:55:38.020Z,1020.29
2022-08-30T16:57:50.149Z,1020.28
2022-08-30T17:00:02.241Z,1020.27
2022-08-30T17:02:14.369Z,1020.25
2022-08-30T17:04:26.375Z,1020.23
2022-08-30T17:06:39.472Z,1020.26
2022-08-30T17:08:56.114Z,1020.29
2022-08-30T17:11:03.634Z,1020.32
2022-08-30T17:13:16.202Z,1020.29
2022-08-30T17:15:27.756Z,1020.32
2022-08-30T17:17:43.110Z,1020.31
2022-08-30T17:19:51.977Z,1020.37
2022-08-30T17:22:04.076Z,1020.37
2022-08-30T17:24:16.140Z,1020.38
2022-08-30T17:26:28.209Z,1020.39
2022-08-30T17:28:40.296Z,1020.39
2022-08-30T17:30:52.428Z,1020.46
2022-08-30T17:33:04.468Z,1020.47
2022-08-30T17:35:16.528Z,1020.46
2022-08-30T17:37:29.554Z,1020.47
2022-08-30T17:39:42.210Z,1020.51
2022-08-30T17:41:54.273Z,1020.54
2022-08-30T17:44:06.387Z,1020.54
2022-08-30T17:47:36.607Z,1020.53
2022-08-30T17:49:49.647Z,1020.54
2022-08-30T17:52:01.697Z,1020.53
2022-08-30T17:54:13.783Z,1020.59
2022-08-30T17:56:29.158Z,1020.64
2022-08-30T17:57:26.816Z,1020.62
2022-08-30T17:59:37.925Z,1020.68
2022-08-30T18:01:50.039Z,1020.64
2022-08-30T18:04:06.371Z,1020.60
2022-08-30T18:06:15.680Z,1020.68
2022-08-30T18:08:27.748Z,1020.70
2022-08-30T18:10:39.827Z,1020.72
2022-08-30T18:12:51.896Z,1020.75
2022-08-30T18:15:12.516Z,1020.81
2022-08-30T18:17:16.091Z,1020.83
2022-08-30T18:19:28.161Z,1020.90
2022-08-30T18:21:40.239Z,1020.91
2022-08-30T18:23:52.319Z,1020.88
2022-08-30T18:26:04.399Z,1020.94
2022-08-30T18:28:16.621Z,1020.94
2022-08-30T18:30:33.964Z,1020.97
2022-08-30T18:32:40.645Z,1020.97
2022-08-30T18:34:54.700Z,1020.99
2022-08-30T18:37:05.803Z,1020.99
2022-08-30T18:39:17.899Z,1021.01
2022-08-30T18:41:29.983Z,1021.05
2022-08-30T18:43:42.052Z,1021.09
2022-08-30T18:45:54.145Z,1021.06
2022-08-30T18:48:06.204Z,1021.08
2022-08-30T18:50:29.260Z,1021.17
2022-08-30T18:52:41.407Z,1021.18
2022-08-30T18:54:53.439Z,1021.21
2022-08-30T18:57:05.491Z,1021.23
2022-08-30T18:59:17.584Z,1021.19
2022-08-30T19:01:29.699Z,1021.17
2022-08-30T19:03:41.864Z,1021.18
2022-08-30T19:05:53.823Z,1021.19
2022-08-30T19:08:05.894Z,1021.14
2022-08-30T19:10:18.003Z,1021.17
2022-08-30T19:12:31.073Z,1021.20
2022-08-30T19:14:43.135Z,1021.19
2022-08-30T19:16:55.230Z,1021.18
2022-08-30T19:19:07.292Z,1021.15
2022-08-30T19:21:19.364Z,1021.16
2022-08-30T19:23:34.339Z,1021.18
2022-08-30T19:25:43.539Z,1021.22
2022-08-30T19:27:55.621Z,1021.21
2022-08-30T19:30:07.691Z,1021.19
2022-08-30T19:32:19.767Z,1021.26
2022-08-30T19:34:31.902Z,1021.28
2022-08-30T19:36:44.967Z,1021.28
2022-08-30T19:38:57.004Z,1021.28
2022-08-30T19:41:10.086Z,1021.30
2022-08-30T19:43:22.167Z,1021.31
2022-08-30T19:45:34.278Z,1021.37
2022-08-30T19:47:46.668Z,1021.37
2022-08-30T19:49:58.411Z,1021.44
2022-08-30T19:52:10.478Z,1021.44
2022-08-30T19:54:22.554Z,1021.38
2022-08-30T19:56:34.668Z,1021.44
2022-08-30T19:58:46.723Z,1021.42
2022-08-30T20:01:12.132Z,1021.42
2022-08-30T20:03:10.990Z,1021.44
2022-08-30T20:05:22.973Z,1021.44
2022-08-30T20:07:35.097Z,1021.43
2022-08-30T20:09:47.184Z,1021.43
2022-08-30T20:11:59.272Z,1021.44
2022-08-30T20:14:13.572Z,1021.46
2022-08-30T20:17:24.353Z,1021.49
2022-08-30T20:19:36.027Z,1021.51
2022-08-30T20:21:50.059Z,1021.52
2022-08-30T20:24:01.143Z,1021.56
2022-08-30T20:26:13.202Z,1021.59
2022-08-30T20:28:25.291Z,1021.63
2022-08-30T20:30:37.510Z,1021.60
2022-08-30T20:32:49.448Z,1021.65
2022-08-30T20:35:01.548Z,1021.61
2022-08-30T20:37:13.612Z,1021.62
2022-08-30T20:39:25.707Z,1021.59
2022-08-30T20:41:37.797Z,1021.61
2022-08-30T20:43:49.885Z,1021.56
2022-08-30T20:46:02.035Z,1021.56
2022-08-30T20:48:14.031Z,1021.61
2022-08-30T20:50:26.106Z,1021.61
2022-08-30T20:52:38.176Z,1021.62
2022-08-30T20:54:50.265Z,1021.62
2022-08-30T20:57:02.343Z,1021.62
2022-08-30T20:59:14.410Z,1021.62
2022-08-30T21:01:26.515Z,1021.62
2022-08-30T21:03:38.610Z,1021.63
2022-08-30T21:05:50.657Z,1021.66
2022-08-30T21:08:02.752Z,1021.66
2022-08-30T21:10:14.809Z,1021.62
2022-08-30T21:12:29.222Z,1021.60
2022-08-30T21:14:39.961Z,1021.54
2022-08-30T21:16:52.070Z,1021.53
2022-08-30T21:19:04.138Z,1021.53
2022-08-30T21:21:16.196Z,1021.55
2022-08-30T21:23:28.276Z,1021.58
2022-08-30T21:25:40.347Z,1021.56
2022-08-30T21:27:52.463Z,1021.58
2022-08-30T21:30:04.533Z,1021.58
2022-08-30T21:32:16.596Z,1021.62
2022-08-30T21:34:28.674Z,1021.65
2022-08-30T21:36:40.745Z,1021.67
2022-08-30T21:38:52.834Z,1021.69
2022-08-30T21:41:04.935Z,1021.64
2022-08-30T21:43:17.293Z,1021.65
2022-08-30T21:45:29.381Z,1021.60
2022-08-30T21:47:41.465Z,1021.69
2022-08-30T21:49:53.533Z,1021.71
2022-08-30T21:52:05.634Z,1021.67
2022-08-30T21:54:17.695Z,1021.63
2022-08-30T21:56:30.298Z,1021.64
2022-08-30T21:58:41.880Z,1021.70
2022-08-30T22:00:53.971Z,1021.69
2022-08-30T22:03:06.160Z,1021.72
2022-08-30T22:05:18.109Z,1021.71
2022-08-30T22:07:30.207Z,1021.76
2022-08-30T22:09:42.253Z,1021.81
2022-08-30T22:11:54.336Z,1021.83
2022-08-30T22:14:06.453Z,1021.83
2022-08-30T22:16:18.554Z,1021.84
2022-08-30T22:18:30.645Z,1021.89
2022-08-30T22:20:42.676Z,1021.86
2022-08-30T22:22:54.745Z,1021.84
2022-08-30T22:25:06.862Z,1021.87
2022-08-30T22:27:18.904Z,1021.88
2022-08-30T22:29:31.021Z,1021.87
2022-08-30T22:31:43.109Z,1021.89
2022-08-30T22:33:55.997Z,1021.94
2022-08-30T22:36:07.244Z,1021.89
2022-08-30T22:38:19.316Z,1021.94
2022-08-30T22:40:31.456Z,1021.96
2022-08-30T22:42:48.277Z,1021.95
2022-08-30T22:44:55.550Z,1021.96
2022-08-30T22:47:07.648Z,1021.95
2022-08-30T22:49:19.710Z,1021.96
2022-08-30T22:51:31.795Z,1021.97
2022-08-30T22:53:44.835Z,1022.00
2022-08-30T22:55:55.958Z,1022.01
2022-08-30T22:58:08.057Z,1022.05
2022-08-30T23:00:20.384Z,1022.04
2022-08-30T23:02:32.228Z,1022.05
2022-08-30T23:04:44.281Z,1022.07
2022-08-30T23:06:56.360Z,1022.08
2022-08-30T23:09:08.465Z,1022.14
2022-08-30T23:11:20.510Z,1022.18
2022-08-30T23:13:32.619Z,1022.19
2022-08-30T23:15:44.696Z,1022.16
2022-08-30T23:17:56.820Z,1022.19
2022-08-30T23:20:08.899Z,1022.19
2022-08-30T23:22:20.947Z,1022.18
2022-08-30T23:24:33.037Z,1022.16
2022-08-30T23:26:45.106Z,1022.19
2022-08-30T23:28:57.185Z,1022.21
2022-08-30T23:31:09.285Z,1022.22
2022-08-30T23:33:21.346Z,1022.23
2022-08-30T23:35:33.415Z,1022.26
2022-08-30T23:37:45.507Z,1022.25
2022-08-30T23:39:57.579Z,1022.23
2022-08-30T23:42:09.686Z,1022.21
2022-08-30T23:44:21.742Z,1022.26
2022-08-30T23:46:34.664Z,1022.26
2022-08-30T23:48:50.069Z,1022.22
2022-08-30T23:50:57.976Z,1022.17
2022-08-30T23:53:10.597Z,1022.17
2022-08-30T23:55:22.155Z,1022.16
2022-08-30T23:57:34.232Z,1022.22
2022-08-30T23:59:46.604Z,1022.19
